sensor_id;sensor_type;location;lat;lon;timestamp;temperature;humidity
6964;DHT22;3522;50.856;7.278;2022-07-30T00:00:14;18.10;99.90
6964;DHT22;3522;50.856;7.278;2022-07-30T00:02:41;18.10;99.90
6964;DHT22;3522;50.856;7.278;2022-07-30T00:05:09;18.10;99.90
6964;DHT22;3522;50.856;7.278;2022-07-30T00:07:36;18.10;99.90
6964;DHT22;3522;50.856;7.278;2022-07-30T00:10:02;18.00;99.90
6964;DHT22;3522;50.856;7.278;2022-07-30T00:12:29;18.00;99.90
6964;DHT22;3522;50.856;7.278;2022-07-30T00:14:56;17.90;99.90
6964;DHT22;3522;50.856;7.278;2022-07-30T00:17:22;17.90;99.90
6964;DHT22;3522;50.856;7.278;2022-07-30T00:19:49;17.80;99.90
6964;DHT22;3522;50.856;7.278;2022-07-30T00:22:17;17.80;99.90
6964;DHT22;3522;50.856;7.278;2022-07-30T00:24:43;17.80;99.90
6964;DHT22;3522;50.856;7.278;2022-07-30T00:27:10;17.80;99.90
6964;DHT22;3522;50.856;7.278;2022-07-30T00:29:38;17.70;99.90
6964;DHT22;3522;50.856;7.278;2022-07-30T00:32:05;17.70;99.90
6964;DHT22;3522;50.856;7.278;2022-07-30T00:34:31;17.70;99.90
6964;DHT22;3522;50.856;7.278;2022-07-30T00:36:58;17.60;99.90
6964;DHT22;3522;50.856;7.278;2022-07-30T00:39:26;17.60;99.90
6964;DHT22;3522;50.856;7.278;2022-07-30T00:41:55;17.60;99.90
6964;DHT22;3522;50.856;7.278;2022-07-30T00:44:22;17.60;99.90
6964;DHT22;3522;50.856;7.278;2022-07-30T00:46:48;17.60;99.90
6964;DHT22;3522;50.856;7.278;2022-07-30T00:49:15;17.60;99.90
6964;DHT22;3522;50.856;7.278;2022-07-30T00:51:41;17.60;99.90
6964;DHT22;3522;50.856;7.278;2022-07-30T00:54:08;17.50;99.90
6964;DHT22;3522;50.856;7.278;2022-07-30T00:56:36;17.50;99.90
6964;DHT22;3522;50.856;7.278;2022-07-30T00:59:03;17.50;99.90
6964;DHT22;3522;50.856;7.278;2022-07-30T01:01:30;17.50;99.90
6964;DHT22;3522;50.856;7.278;2022-07-30T01:03:56;17.50;99.90
6964;DHT22;3522;50.856;7.278;2022-07-30T01:06:23;17.40;99.90
6964;DHT22;3522;50.856;7.278;2022-07-30T01:08:50;17.40;99.90
6964;DHT22;3522;50.856;7.278;2022-07-30T01:11:16;17.40;99.90
6964;DHT22;3522;50.856;7.278;2022-07-30T01:13:44;17.30;99.90
6964;DHT22;3522;50.856;7.278;2022-07-30T01:16:11;17.30;99.90
6964;DHT22;3522;50.856;7.278;2022-07-30T01:18:38;17.20;99.90
6964;DHT22;3522;50.856;7.278;2022-07-30T01:21:31;17.20;99.90
6964;DHT22;3522;50.856;7.278;2022-07-30T01:24:02;17.10;99.90
6964;DHT22;3522;50.856;7.278;2022-07-30T01:26:33;17.10;99.90
6964;DHT22;3522;50.856;7.278;2022-07-30T01:28:59;17.10;99.90
6964;DHT22;3522;50.856;7.278;2022-07-30T01:31:27;17.10;99.90
6964;DHT22;3522;50.856;7.278;2022-07-30T01:33:53;17.00;99.90
6964;DHT22;3522;50.856;7.278;2022-07-30T01:36:21;17.00;99.90
6964;DHT22;3522;50.856;7.278;2022-07-30T01:38:49;17.00;99.90
6964;DHT22;3522;50.856;7.278;2022-07-30T01:41:16;17.00;99.90
6964;DHT22;3522;50.856;7.278;2022-07-30T01:43:44;16.90;99.90
6964;DHT22;3522;50.856;7.278;2022-07-30T01:46:12;16.90;99.90
6964;DHT22;3522;50.856;7.278;2022-07-30T01:48:40;16.90;99.90
6964;DHT22;3522;50.856;7.278;2022-07-30T01:51:08;16.90;99.90
6964;DHT22;3522;50.856;7.278;2022-07-30T01:53:36;16.90;99.90
6964;DHT22;3522;50.856;7.278;2022-07-30T01:56:03;16.80;99.90
6964;DHT22;3522;50.856;7.278;2022-07-30T01:58:31;16.80;99.90
6964;DHT22;3522;50.856;7.278;2022-07-30T02:00:59;16.80;99.90
6964;DHT22;3522;50.856;7.278;2022-07-30T02:03:25;16.80;99.90
6964;DHT22;3522;50.856;7.278;2022-07-30T02:05:58;16.80;99.90
6964;DHT22;3522;50.856;7.278;2022-07-30T02:08:27;16.80;99.90
6964;DHT22;3522;50.856;7.278;2022-07-30T02:11:00;16.90;99.90
6964;DHT22;3522;50.856;7.278;2022-07-30T02:13:29;16.90;99.90
6964;DHT22;3522;50.856;7.278;2022-07-30T02:16:01;16.90;99.90
6964;DHT22;3522;50.856;7.278;2022-07-30T02:18:34;17.00;99.90
6964;DHT22;3522;50.856;7.278;2022-07-30T02:21:03;17.00;99.90
6964;DHT22;3522;50.856;7.278;2022-07-30T02:23:30;17.00;99.90
6964;DHT22;3522;50.856;7.278;2022-07-30T02:25:58;17.00;99.90
6964;DHT22;3522;50.856;7.278;2022-07-30T02:28:25;17.00;99.90
6964;DHT22;3522;50.856;7.278;2022-07-30T02:30:53;17.00;99.90
6964;DHT22;3522;50.856;7.278;2022-07-30T02:33:22;17.00;99.90
6964;DHT22;3522;50.856;7.278;2022-07-30T02:35:50;17.00;99.90
6964;DHT22;3522;50.856;7.278;2022-07-30T02:38:17;17.00;99.90
6964;DHT22;3522;50.856;7.278;2022-07-30T02:40:45;16.90;99.90
6964;DHT22;3522;50.856;7.278;2022-07-30T02:43:13;16.90;99.90
6964;DHT22;3522;50.856;7.278;2022-07-30T02:45:40;16.80;99.90
6964;DHT22;3522;50.856;7.278;2022-07-30T02:48:08;16.80;99.90
6964;DHT22;3522;50.856;7.278;2022-07-30T02:50:36;16.80;99.90
6964;DHT22;3522;50.856;7.278;2022-07-30T02:53:06;16.70;99.90
6964;DHT22;3522;50.856;7.278;2022-07-30T02:55:34;16.70;99.90
6964;DHT22;3522;50.856;7.278;2022-07-30T02:58:01;16.70;99.90
6964;DHT22;3522;50.856;7.278;2022-07-30T03:00:29;16.60;99.90
6964;DHT22;3522;50.856;7.278;2022-07-30T03:02:56;16.60;99.90
6964;DHT22;3522;50.856;7.278;2022-07-30T03:05:23;16.60;99.90
6964;DHT22;3522;50.856;7.278;2022-07-30T03:07:51;16.60;99.90
6964;DHT22;3522;50.856;7.278;2022-07-30T03:10:19;16.60;99.90
6964;DHT22;3522;50.856;7.278;2022-07-30T03:12:46;16.60;99.90
6964;DHT22;3522;50.856;7.278;2022-07-30T03:15:14;16.60;99.90
6964;DHT22;3522;50.856;7.278;2022-07-30T03:17:41;16.60;99.90
6964;DHT22;3522;50.856;7.278;2022-07-30T03:20:09;16.60;99.90
6964;DHT22;3522;50.856;7.278;2022-07-30T03:22:39;16.50;99.90
6964;DHT22;3522;50.856;7.278;2022-07-30T03:25:08;16.50;99.90
6964;DHT22;3522;50.856;7.278;2022-07-30T03:27:35;16.50;99.90
6964;DHT22;3522;50.856;7.278;2022-07-30T03:30:05;16.50;99.90
6964;DHT22;3522;50.856;7.278;2022-07-30T03:32:32;16.50;99.90
6964;DHT22;3522;50.856;7.278;2022-07-30T03:34:59;16.50;99.90
6964;DHT22;3522;50.856;7.278;2022-07-30T03:37:26;16.40;99.90
6964;DHT22;3522;50.856;7.278;2022-07-30T03:39:52;16.40;99.90
6964;DHT22;3522;50.856;7.278;2022-07-30T03:42:21;16.40;99.90
6964;DHT22;3522;50.856;7.278;2022-07-30T03:44:47;16.40;99.90
6964;DHT22;3522;50.856;7.278;2022-07-30T03:47:14;16.30;99.90
6964;DHT22;3522;50.856;7.278;2022-07-30T03:49:42;16.40;99.90
6964;DHT22;3522;50.856;7.278;2022-07-30T03:52:08;16.30;99.90
6964;DHT22;3522;50.856;7.278;2022-07-30T03:54:35;16.30;99.90
6964;DHT22;3522;50.856;7.278;2022-07-30T03:57:02;16.30;99.90
6964;DHT22;3522;50.856;7.278;2022-07-30T03:59:32;16.30;99.90
6964;DHT22;3522;50.856;7.278;2022-07-30T04:01:59;16.20;99.90
6964;DHT22;3522;50.856;7.278;2022-07-30T04:04:25;16.20;99.90
6964;DHT22;3522;50.856;7.278;2022-07-30T04:06:52;16.10;99.90
6964;DHT22;3522;50.856;7.278;2022-07-30T04:09:18;16.10;99.90
6964;DHT22;3522;50.856;7.278;2022-07-30T04:11:45;16.10;99.90
6964;DHT22;3522;50.856;7.278;2022-07-30T04:14:12;16.10;99.90
6964;DHT22;3522;50.856;7.278;2022-07-30T04:16:42;16.10;99.90
6964;DHT22;3522;50.856;7.278;2022-07-30T04:19:11;16.10;99.90
6964;DHT22;3522;50.856;7.278;2022-07-30T04:21:38;16.10;99.90
6964;DHT22;3522;50.856;7.278;2022-07-30T04:24:05;16.10;99.90
6964;DHT22;3522;50.856;7.278;2022-07-30T04:26:33;16.20;99.90
6964;DHT22;3522;50.856;7.278;2022-07-30T04:29:01;16.20;99.90
6964;DHT22;3522;50.856;7.278;2022-07-30T04:31:29;16.20;99.90
6964;DHT22;3522;50.856;7.278;2022-07-30T04:34:00;16.20;99.90
6964;DHT22;3522;50.856;7.278;2022-07-30T04:36:28;16.20;99.90
6964;DHT22;3522;50.856;7.278;2022-07-30T04:38:55;16.10;99.90
6964;DHT22;3522;50.856;7.278;2022-07-30T04:41:21;16.20;99.90
6964;DHT22;3522;50.856;7.278;2022-07-30T04:43:48;16.10;99.90
6964;DHT22;3522;50.856;7.278;2022-07-30T04:46:14;16.10;99.90
6964;DHT22;3522;50.856;7.278;2022-07-30T04:48:41;16.20;99.90
6964;DHT22;3522;50.856;7.278;2022-07-30T04:51:11;16.10;99.90
6964;DHT22;3522;50.856;7.278;2022-07-30T04:53:38;16.20;99.90
6964;DHT22;3522;50.856;7.278;2022-07-30T04:56:05;16.20;99.90
6964;DHT22;3522;50.856;7.278;2022-07-30T04:58:32;16.20;99.90
6964;DHT22;3522;50.856;7.278;2022-07-30T05:01:00;16.30;99.90
6964;DHT22;3522;50.856;7.278;2022-07-30T05:03:27;16.40;99.90
6964;DHT22;3522;50.856;7.278;2022-07-30T05:05:54;16.50;99.90
6964;DHT22;3522;50.856;7.278;2022-07-30T05:08:23;16.60;99.90
6964;DHT22;3522;50.856;7.278;2022-07-30T05:10:50;16.70;99.90
6964;DHT22;3522;50.856;7.278;2022-07-30T05:13:16;16.80;99.90
6964;DHT22;3522;50.856;7.278;2022-07-30T05:15:43;16.90;99.90
6964;DHT22;3522;50.856;7.278;2022-07-30T05:18:10;16.90;99.90
6964;DHT22;3522;50.856;7.278;2022-07-30T05:20:36;17.00;99.90
6964;DHT22;3522;50.856;7.278;2022-07-30T05:23:03;17.00;99.90
6964;DHT22;3522;50.856;7.278;2022-07-30T05:25:31;17.00;99.90
6964;DHT22;3522;50.856;7.278;2022-07-30T05:27:57;16.90;99.90
6964;DHT22;3522;50.856;7.278;2022-07-30T05:30:24;17.00;99.90
6964;DHT22;3522;50.856;7.278;2022-07-30T05:32:51;16.90;99.90
6964;DHT22;3522;50.856;7.278;2022-07-30T05:35:17;16.90;99.90
6964;DHT22;3522;50.856;7.278;2022-07-30T05:37:44;17.00;99.90
6964;DHT22;3522;50.856;7.278;2022-07-30T05:40:11;17.00;99.90
6964;DHT22;3522;50.856;7.278;2022-07-30T05:42:39;16.90;99.90
6964;DHT22;3522;50.856;7.278;2022-07-30T05:45:05;17.00;99.90
6964;DHT22;3522;50.856;7.278;2022-07-30T05:47:32;17.00;99.90
6964;DHT22;3522;50.856;7.278;2022-07-30T05:49:58;17.10;99.90
6964;DHT22;3522;50.856;7.278;2022-07-30T05:52:25;17.10;99.90
6964;DHT22;3522;50.856;7.278;2022-07-30T05:54:53;17.20;99.90
6964;DHT22;3522;50.856;7.278;2022-07-30T05:57:19;17.30;99.90
6964;DHT22;3522;50.856;7.278;2022-07-30T05:59:47;17.40;99.90
6964;DHT22;3522;50.856;7.278;2022-07-30T06:02:14;17.50;99.90
6964;DHT22;3522;50.856;7.278;2022-07-30T06:04:41;17.60;99.90
6964;DHT22;3522;50.856;7.278;2022-07-30T06:07:07;17.70;99.90
6964;DHT22;3522;50.856;7.278;2022-07-30T06:09:34;17.90;99.90
6964;DHT22;3522;50.856;7.278;2022-07-30T06:12:01;17.90;99.90
6964;DHT22;3522;50.856;7.278;2022-07-30T06:14:27;18.00;99.90
6964;DHT22;3522;50.856;7.278;2022-07-30T06:16:55;18.20;99.90
6964;DHT22;3522;50.856;7.278;2022-07-30T06:19:21;18.30;99.90
6964;DHT22;3522;50.856;7.278;2022-07-30T06:21:48;18.50;99.90
6964;DHT22;3522;50.856;7.278;2022-07-30T06:24:15;18.60;99.90
6964;DHT22;3522;50.856;7.278;2022-07-30T06:26:41;18.80;99.90
6964;DHT22;3522;50.856;7.278;2022-07-30T06:29:08;19.10;99.90
6964;DHT22;3522;50.856;7.278;2022-07-30T06:31:34;19.30;99.90
6964;DHT22;3522;50.856;7.278;2022-07-30T06:34:03;19.50;99.90
6964;DHT22;3522;50.856;7.278;2022-07-30T06:36:30;19.80;99.90
6964;DHT22;3522;50.856;7.278;2022-07-30T06:38:56;20.10;99.90
6964;DHT22;3522;50.856;7.278;2022-07-30T06:41:23;20.20;99.90
6964;DHT22;3522;50.856;7.278;2022-07-30T06:43:49;20.20;99.90
6964;DHT22;3522;50.856;7.278;2022-07-30T06:46:16;20.40;99.90
6964;DHT22;3522;50.856;7.278;2022-07-30T06:48:43;20.60;99.90
6964;DHT22;3522;50.856;7.278;2022-07-30T06:51:11;20.70;99.90
6964;DHT22;3522;50.856;7.278;2022-07-30T06:53:37;20.70;99.90
6964;DHT22;3522;50.856;7.278;2022-07-30T06:56:04;20.60;99.90
6964;DHT22;3522;50.856;7.278;2022-07-30T06:58:30;21.00;99.90
6964;DHT22;3522;50.856;7.278;2022-07-30T07:00:57;21.30;99.90
6964;DHT22;3522;50.856;7.278;2022-07-30T07:03:23;21.40;99.90
6964;DHT22;3522;50.856;7.278;2022-07-30T07:05:51;21.50;99.90
6964;DHT22;3522;50.856;7.278;2022-07-30T07:08:19;21.60;99.90
6964;DHT22;3522;50.856;7.278;2022-07-30T07:10:46;21.70;99.90
6964;DHT22;3522;50.856;7.278;2022-07-30T07:13:12;21.60;99.90
6964;DHT22;3522;50.856;7.278;2022-07-30T07:15:39;21.60;99.90
6964;DHT22;3522;50.856;7.278;2022-07-30T07:18:05;21.60;99.90
6964;DHT22;3522;50.856;7.278;2022-07-30T07:20:32;21.90;99.90
6964;DHT22;3522;50.856;7.278;2022-07-30T07:22:59;22.00;99.90
6964;DHT22;3522;50.856;7.278;2022-07-30T07:25:27;22.00;99.90
6964;DHT22;3522;50.856;7.278;2022-07-30T07:27:53;22.10;99.90
6964;DHT22;3522;50.856;7.278;2022-07-30T07:30:20;22.20;99.90
6964;DHT22;3522;50.856;7.278;2022-07-30T07:32:46;22.30;99.90
6964;DHT22;3522;50.856;7.278;2022-07-30T07:35:13;22.70;99.90
6964;DHT22;3522;50.856;7.278;2022-07-30T07:37:42;22.60;99.90
6964;DHT22;3522;50.856;7.278;2022-07-30T07:40:09;22.50;99.90
6964;DHT22;3522;50.856;7.278;2022-07-30T07:42:37;22.50;99.90
6964;DHT22;3522;50.856;7.278;2022-07-30T07:45:04;22.50;99.90
6964;DHT22;3522;50.856;7.278;2022-07-30T07:47:30;22.60;99.90
6964;DHT22;3522;50.856;7.278;2022-07-30T07:49:57;22.80;99.90
6964;DHT22;3522;50.856;7.278;2022-07-30T07:52:23;22.80;99.90
6964;DHT22;3522;50.856;7.278;2022-07-30T07:54:50;22.90;99.90
6964;DHT22;3522;50.856;7.278;2022-07-30T07:57:16;23.00;99.90
6964;DHT22;3522;50.856;7.278;2022-07-30T07:59:45;23.20;99.90
6964;DHT22;3522;50.856;7.278;2022-07-30T08:02:11;23.40;99.90
6964;DHT22;3522;50.856;7.278;2022-07-30T08:04:38;23.50;99.90
6964;DHT22;3522;50.856;7.278;2022-07-30T08:07:04;23.40;99.90
6964;DHT22;3522;50.856;7.278;2022-07-30T08:09:31;23.40;99.90
6964;DHT22;3522;50.856;7.278;2022-07-30T08:11:57;23.40;99.90
6964;DHT22;3522;50.856;7.278;2022-07-30T08:14:24;23.50;99.90
6964;DHT22;3522;50.856;7.278;2022-07-30T08:16:52;23.50;99.90
6964;DHT22;3522;50.856;7.278;2022-07-30T08:19:18;23.60;99.90
6964;DHT22;3522;50.856;7.278;2022-07-30T08:21:45;23.60;99.90
6964;DHT22;3522;50.856;7.278;2022-07-30T08:24:11;23.80;99.90
6964;DHT22;3522;50.856;7.278;2022-07-30T08:26:38;23.80;99.90
6964;DHT22;3522;50.856;7.278;2022-07-30T08:29:04;23.90;99.90
6964;DHT22;3522;50.856;7.278;2022-07-30T08:31:31;23.90;99.90
6964;DHT22;3522;50.856;7.278;2022-07-30T08:33:59;24.00;99.90
6964;DHT22;3522;50.856;7.278;2022-07-30T08:36:26;24.20;99.90
6964;DHT22;3522;50.856;7.278;2022-07-30T08:38:53;24.30;99.90
6964;DHT22;3522;50.856;7.278;2022-07-30T08:41:19;24.50;99.90
6964;DHT22;3522;50.856;7.278;2022-07-30T08:43:46;24.50;99.90
6964;DHT22;3522;50.856;7.278;2022-07-30T08:46:14;24.80;99.90
6964;DHT22;3522;50.856;7.278;2022-07-30T08:48:43;24.90;99.90
6964;DHT22;3522;50.856;7.278;2022-07-30T08:51:11;24.90;99.90
6964;DHT22;3522;50.856;7.278;2022-07-30T08:53:37;25.00;99.90
6964;DHT22;3522;50.856;7.278;2022-07-30T08:56:05;25.00;99.90
6964;DHT22;3522;50.856;7.278;2022-07-30T08:58:32;24.90;99.90
6964;DHT22;3522;50.856;7.278;2022-07-30T09:00:59;25.00;99.90
6964;DHT22;3522;50.856;7.278;2022-07-30T09:03:26;25.00;99.90
6964;DHT22;3522;50.856;7.278;2022-07-30T09:05:52;24.90;99.90
6964;DHT22;3522;50.856;7.278;2022-07-30T09:08:20;25.00;99.90
6964;DHT22;3522;50.856;7.278;2022-07-30T09:10:47;24.90;99.90
6964;DHT22;3522;50.856;7.278;2022-07-30T09:13:23;24.90;99.90
6964;DHT22;3522;50.856;7.278;2022-07-30T09:15:50;25.10;99.90
6964;DHT22;3522;50.856;7.278;2022-07-30T09:18:25;25.30;99.90
6964;DHT22;3522;50.856;7.278;2022-07-30T09:20:51;25.40;99.90
6964;DHT22;3522;50.856;7.278;2022-07-30T09:23:18;25.40;99.90
6964;DHT22;3522;50.856;7.278;2022-07-30T09:25:46;25.50;99.90
6964;DHT22;3522;50.856;7.278;2022-07-30T09:28:13;25.50;99.90
6964;DHT22;3522;50.856;7.278;2022-07-30T09:30:44;25.80;99.90
6964;DHT22;3522;50.856;7.278;2022-07-30T09:33:11;25.70;99.90
6964;DHT22;3522;50.856;7.278;2022-07-30T09:35:38;25.80;99.90
6964;DHT22;3522;50.856;7.278;2022-07-30T09:38:05;26.10;99.90
6964;DHT22;3522;50.856;7.278;2022-07-30T09:40:32;26.30;99.90
6964;DHT22;3522;50.856;7.278;2022-07-30T09:43:04;26.30;99.90
6964;DHT22;3522;50.856;7.278;2022-07-30T09:45:31;26.20;99.90
6964;DHT22;3522;50.856;7.278;2022-07-30T09:47:58;26.40;99.90
6964;DHT22;3522;50.856;7.278;2022-07-30T09:50:24;26.50;99.90
6964;DHT22;3522;50.856;7.278;2022-07-30T09:52:51;26.80;99.90
6964;DHT22;3522;50.856;7.278;2022-07-30T09:55:27;26.80;99.90
6964;DHT22;3522;50.856;7.278;2022-07-30T09:57:55;26.80;99.90
6964;DHT22;3522;50.856;7.278;2022-07-30T10:00:24;26.60;99.90
6964;DHT22;3522;50.856;7.278;2022-07-30T10:02:51;26.50;99.90
6964;DHT22;3522;50.856;7.278;2022-07-30T10:05:18;26.70;99.90
6964;DHT22;3522;50.856;7.278;2022-07-30T10:07:49;26.90;99.90
6964;DHT22;3522;50.856;7.278;2022-07-30T10:10:16;27.00;99.60
6964;DHT22;3522;50.856;7.278;2022-07-30T10:12:43;27.20;99.90
6964;DHT22;3522;50.856;7.278;2022-07-30T10:15:11;27.10;98.90
6964;DHT22;3522;50.856;7.278;2022-07-30T10:17:40;27.00;98.80
6964;DHT22;3522;50.856;7.278;2022-07-30T10:20:07;26.50;99.10
6964;DHT22;3522;50.856;7.278;2022-07-30T10:22:33;26.60;99.40
6964;DHT22;3522;50.856;7.278;2022-07-30T10:25:00;26.80;99.90
6964;DHT22;3522;50.856;7.278;2022-07-30T10:27:27;26.50;99.00
6964;DHT22;3522;50.856;7.278;2022-07-30T10:29:54;26.60;99.90
6964;DHT22;3522;50.856;7.278;2022-07-30T10:32:21;26.70;99.90
6964;DHT22;3522;50.856;7.278;2022-07-30T10:34:49;26.70;99.40
6964;DHT22;3522;50.856;7.278;2022-07-30T10:37:16;26.70;99.80
6964;DHT22;3522;50.856;7.278;2022-07-30T10:39:44;27.20;97.00
6964;DHT22;3522;50.856;7.278;2022-07-30T10:42:15;27.40;98.00
6964;DHT22;3522;50.856;7.278;2022-07-30T10:44:49;27.70;96.60
6964;DHT22;3522;50.856;7.278;2022-07-30T10:47:21;27.70;97.30
6964;DHT22;3522;50.856;7.278;2022-07-30T10:50:10;27.90;95.20
6964;DHT22;3522;50.856;7.278;2022-07-30T10:52:41;28.20;94.70
6964;DHT22;3522;50.856;7.278;2022-07-30T10:55:11;28.20;96.30
6964;DHT22;3522;50.856;7.278;2022-07-30T10:57:42;27.90;97.10
6964;DHT22;3522;50.856;7.278;2022-07-30T11:00:21;27.60;96.90
6964;DHT22;3522;50.856;7.278;2022-07-30T11:05:34;27.70;97.10
6964;DHT22;3522;50.856;7.278;2022-07-30T11:10:43;28.20;94.10
6964;DHT22;3522;50.856;7.278;2022-07-30T11:13:09;28.50;95.60
6964;DHT22;3522;50.856;7.278;2022-07-30T11:15:50;28.30;95.40
6964;DHT22;3522;50.856;7.278;2022-07-30T11:18:17;27.90;96.40
6964;DHT22;3522;50.856;7.278;2022-07-30T11:21:13;27.40;95.80
6964;DHT22;3522;50.856;7.278;2022-07-30T11:23:35;27.60;94.70
6964;DHT22;3522;50.856;7.278;2022-07-30T11:26:01;28.00;94.00
6964;DHT22;3522;50.856;7.278;2022-07-30T11:28:36;28.40;94.80
6964;DHT22;3522;50.856;7.278;2022-07-30T11:31:03;28.80;92.70
6964;DHT22;3522;50.856;7.278;2022-07-30T11:33:29;28.50;92.20
6964;DHT22;3522;50.856;7.278;2022-07-30T11:36:07;28.00;94.40
6964;DHT22;3522;50.856;7.278;2022-07-30T11:38:50;27.80;95.20
6964;DHT22;3522;50.856;7.278;2022-07-30T11:41:17;27.80;94.00
6964;DHT22;3522;50.856;7.278;2022-07-30T11:43:43;27.50;91.60
6964;DHT22;3522;50.856;7.278;2022-07-30T11:46:11;27.70;92.50
6964;DHT22;3522;50.856;7.278;2022-07-30T11:48:38;27.70;93.00
6964;DHT22;3522;50.856;7.278;2022-07-30T11:51:07;27.80;93.10
6964;DHT22;3522;50.856;7.278;2022-07-30T11:53:34;27.90;92.30
6964;DHT22;3522;50.856;7.278;2022-07-30T11:56:01;27.80;92.80
6964;DHT22;3522;50.856;7.278;2022-07-30T11:58:29;27.80;93.00
6964;DHT22;3522;50.856;7.278;2022-07-30T12:00:56;27.80;90.00
6964;DHT22;3522;50.856;7.278;2022-07-30T12:03:25;28.20;79.10
6964;DHT22;3522;50.856;7.278;2022-07-30T12:05:52;28.20;83.00
6964;DHT22;3522;50.856;7.278;2022-07-30T12:08:20;28.50;88.10
6964;DHT22;3522;50.856;7.278;2022-07-30T12:10:54;28.90;85.60
6964;DHT22;3522;50.856;7.278;2022-07-30T12:13:21;29.10;83.30
6964;DHT22;3522;50.856;7.278;2022-07-30T12:15:47;29.10;87.30
6964;DHT22;3522;50.856;7.278;2022-07-30T12:18:21;29.20;84.60
6964;DHT22;3522;50.856;7.278;2022-07-30T12:20:52;29.10;81.00
6964;DHT22;3522;50.856;7.278;2022-07-30T12:23:20;29.30;78.20
6964;DHT22;3522;50.856;7.278;2022-07-30T12:25:50;29.00;77.30
6964;DHT22;3522;50.856;7.278;2022-07-30T12:28:20;29.10;78.40
6964;DHT22;3522;50.856;7.278;2022-07-30T12:30:47;28.70;80.30
6964;DHT22;3522;50.856;7.278;2022-07-30T12:33:14;28.40;82.00
6964;DHT22;3522;50.856;7.278;2022-07-30T12:35:42;28.20;85.50
6964;DHT22;3522;50.856;7.278;2022-07-30T12:38:08;28.30;83.00
6964;DHT22;3522;50.856;7.278;2022-07-30T12:46:00;29.00;81.50
6964;DHT22;3522;50.856;7.278;2022-07-30T12:48:27;29.10;80.70
6964;DHT22;3522;50.856;7.278;2022-07-30T12:51:02;29.30;83.10
6964;DHT22;3522;50.856;7.278;2022-07-30T12:53:29;29.40;78.20
6964;DHT22;3522;50.856;7.278;2022-07-30T12:56:05;29.50;76.50
6964;DHT22;3522;50.856;7.278;2022-07-30T12:58:35;29.20;79.20
6964;DHT22;3522;50.856;7.278;2022-07-30T13:01:03;28.90;81.40
6964;DHT22;3522;50.856;7.278;2022-07-30T13:03:29;28.60;79.60
6964;DHT22;3522;50.856;7.278;2022-07-30T13:06:10;28.30;80.50
6964;DHT22;3522;50.856;7.278;2022-07-30T13:08:47;28.00;79.00
6964;DHT22;3522;50.856;7.278;2022-07-30T13:11:14;28.00;79.50
6964;DHT22;3522;50.856;7.278;2022-07-30T13:13:41;27.90;81.20
6964;DHT22;3522;50.856;7.278;2022-07-30T13:16:09;27.90;81.70
6964;DHT22;3522;50.856;7.278;2022-07-30T13:18:36;28.00;80.90
6964;DHT22;3522;50.856;7.278;2022-07-30T13:21:03;28.10;80.40
6964;DHT22;3522;50.856;7.278;2022-07-30T13:23:31;28.10;79.90
6964;DHT22;3522;50.856;7.278;2022-07-30T13:25:58;28.20;79.50
6964;DHT22;3522;50.856;7.278;2022-07-30T13:28:25;28.30;81.30
6964;DHT22;3522;50.856;7.278;2022-07-30T13:30:52;28.40;79.70
6964;DHT22;3522;50.856;7.278;2022-07-30T13:33:20;28.50;80.10
6964;DHT22;3522;50.856;7.278;2022-07-30T13:35:48;28.50;76.90
6964;DHT22;3522;50.856;7.278;2022-07-30T13:38:15;28.30;76.30
6964;DHT22;3522;50.856;7.278;2022-07-30T13:40:41;28.40;76.50
6964;DHT22;3522;50.856;7.278;2022-07-30T13:43:08;28.50;75.00
6964;DHT22;3522;50.856;7.278;2022-07-30T13:45:35;28.60;77.20
6964;DHT22;3522;50.856;7.278;2022-07-30T13:48:02;28.40;76.20
6964;DHT22;3522;50.856;7.278;2022-07-30T13:50:30;28.30;77.30
6964;DHT22;3522;50.856;7.278;2022-07-30T13:52:57;28.20;81.20
6964;DHT22;3522;50.856;7.278;2022-07-30T13:55:24;28.20;81.50
6964;DHT22;3522;50.856;7.278;2022-07-30T13:57:50;28.40;76.20
6964;DHT22;3522;50.856;7.278;2022-07-30T14:00:17;28.60;76.10
6964;DHT22;3522;50.856;7.278;2022-07-30T14:02:43;28.60;77.40
6964;DHT22;3522;50.856;7.278;2022-07-30T14:05:10;28.40;77.80
6964;DHT22;3522;50.856;7.278;2022-07-30T14:07:38;28.10;78.40
6964;DHT22;3522;50.856;7.278;2022-07-30T14:10:05;27.60;79.60
6964;DHT22;3522;50.856;7.278;2022-07-30T14:12:32;27.60;80.30
6964;DHT22;3522;50.856;7.278;2022-07-30T14:14:59;27.30;81.80
6964;DHT22;3522;50.856;7.278;2022-07-30T14:17:25;27.30;81.90
6964;DHT22;3522;50.856;7.278;2022-07-30T14:19:52;27.40;81.30
6964;DHT22;3522;50.856;7.278;2022-07-30T14:22:19;27.30;83.10
6964;DHT22;3522;50.856;7.278;2022-07-30T14:24:47;27.40;84.30
6964;DHT22;3522;50.856;7.278;2022-07-30T14:27:13;27.50;84.70
6964;DHT22;3522;50.856;7.278;2022-07-30T14:29:40;27.60;83.70
6964;DHT22;3522;50.856;7.278;2022-07-30T14:32:07;27.70;82.10
6964;DHT22;3522;50.856;7.278;2022-07-30T14:34:33;28.00;77.60
6964;DHT22;3522;50.856;7.278;2022-07-30T14:37:00;28.20;80.70
6964;DHT22;3522;50.856;7.278;2022-07-30T14:39:26;28.40;78.60
6964;DHT22;3522;50.856;7.278;2022-07-30T14:41:54;28.40;74.60
6964;DHT22;3522;50.856;7.278;2022-07-30T14:44:21;28.50;75.30
6964;DHT22;3522;50.856;7.278;2022-07-30T14:46:48;28.60;80.10
6964;DHT22;3522;50.856;7.278;2022-07-30T14:49:14;28.50;78.20
6964;DHT22;3522;50.856;7.278;2022-07-30T14:51:41;28.40;78.60
6964;DHT22;3522;50.856;7.278;2022-07-30T14:54:07;28.40;75.60
6964;DHT22;3522;50.856;7.278;2022-07-30T14:56:36;28.30;76.10
6964;DHT22;3522;50.856;7.278;2022-07-30T14:59:04;28.10;79.80
6964;DHT22;3522;50.856;7.278;2022-07-30T15:01:30;28.00;79.30
6964;DHT22;3522;50.856;7.278;2022-07-30T15:03:57;27.90;81.00
6964;DHT22;3522;50.856;7.278;2022-07-30T15:06:23;28.00;78.00
6964;DHT22;3522;50.856;7.278;2022-07-30T15:08:50;28.00;78.10
6964;DHT22;3522;50.856;7.278;2022-07-30T15:11:17;28.10;76.80
6964;DHT22;3522;50.856;7.278;2022-07-30T15:13:43;28.00;78.30
6964;DHT22;3522;50.856;7.278;2022-07-30T15:16:11;27.90;79.60
6964;DHT22;3522;50.856;7.278;2022-07-30T15:18:38;27.50;78.20
6964;DHT22;3522;50.856;7.278;2022-07-30T15:21:05;27.40;79.90
6964;DHT22;3522;50.856;7.278;2022-07-30T15:23:31;27.30;81.30
6964;DHT22;3522;50.856;7.278;2022-07-30T15:25:58;27.20;79.90
6964;DHT22;3522;50.856;7.278;2022-07-30T15:28:24;27.10;78.00
6964;DHT22;3522;50.856;7.278;2022-07-30T15:30:51;27.20;80.50
6964;DHT22;3522;50.856;7.278;2022-07-30T15:33:19;27.30;81.40
6964;DHT22;3522;50.856;7.278;2022-07-30T15:35:46;27.20;82.40
6964;DHT22;3522;50.856;7.278;2022-07-30T15:38:13;27.10;79.80
6964;DHT22;3522;50.856;7.278;2022-07-30T15:40:40;26.90;79.10
6964;DHT22;3522;50.856;7.278;2022-07-30T15:43:07;26.90;79.40
6964;DHT22;3522;50.856;7.278;2022-07-30T15:45:33;26.70;80.20
6964;DHT22;3522;50.856;7.278;2022-07-30T15:48:00;26.70;80.00
6964;DHT22;3522;50.856;7.278;2022-07-30T15:50:28;26.60;83.00
6964;DHT22;3522;50.856;7.278;2022-07-30T15:52:55;26.60;81.30
6964;DHT22;3522;50.856;7.278;2022-07-30T15:55:21;26.50;83.00
6964;DHT22;3522;50.856;7.278;2022-07-30T15:57:48;26.60;85.20
6964;DHT22;3522;50.856;7.278;2022-07-30T16:00:15;26.50;84.80
6964;DHT22;3522;50.856;7.278;2022-07-30T16:02:41;26.30;85.70
6964;DHT22;3522;50.856;7.278;2022-07-30T16:05:08;26.20;86.10
6964;DHT22;3522;50.856;7.278;2022-07-30T16:07:36;26.30;87.50
6964;DHT22;3522;50.856;7.278;2022-07-30T16:10:03;26.30;85.50
6964;DHT22;3522;50.856;7.278;2022-07-30T16:12:30;26.40;87.00
6964;DHT22;3522;50.856;7.278;2022-07-30T16:14:57;26.40;84.70